Time;durP1;ratioP1;P1;durP2;ratioP2;P2;SDS_P1;SDS_P2;PMS_P1;PMS_P2;Temp;Humidity;BMP_temperature;BMP_pressure;BME280_temperature;BME280_humidity;BME280_pressure;Samples;Min_cycle;Max_cycle;Signal;HPM_P1;HPM_P2
2023/03/03 00:00:41;;;;;;;31.90;13.95;;;;;;;;;;6272685;22;20027;-84
2023/03/03 00:03:23;;;;;;;27.55;13.20;;;;;;;;;;6298958;22;20046;-85
2023/03/03 00:06:04;;;;;;;30.92;13.93;;;;;;;;;;6274300;22;20035;-84
2023/03/03 00:08:39;;;;;;;32.38;13.85;;;;;;;;;;6275994;22;20028;-84
2023/03/03 00:11:14;;;;;;;36.13;14.52;;;;;;;;;;6300444;22;20028;-85
2023/03/03 00:13:49;;;;;;;27.80;13.10;;;;;;;;;;6298942;22;20031;-85
2023/03/03 00:16:31;;;;;;;33.70;13.55;;;;;;;;;;6299544;22;20081;-85
2023/03/03 00:19:03;;;;;;;30.80;13.10;;;;;;;;;;6300764;22;20110;-85
2023/03/03 00:21:46;;;;;;;28.77;13.38;;;;;;;;;;6301778;22;20106;-83
2023/03/03 00:24:37;;;;;;;29.30;13.23;;;;;;;;;;6299199;22;20109;-83
2023/03/03 00:27:28;;;;;;;27.40;12.85;;;;;;;;;;6301586;22;20023;-83
2023/03/03 00:30:00;;;;;;;31.98;13.35;;;;;;;;;;6300129;22;20468;-82
2023/03/03 00:32:40;;;;;;;35.28;13.82;;;;;;;;;;6299619;22;20032;-82
2023/03/03 00:35:37;;;;;;;27.58;12.93;;;;;;;;;;6299560;22;20675;-83
2023/03/03 00:38:18;;;;;;;33.13;14.40;;;;;;;;;;6273995;22;20022;-82
2023/03/03 00:40:52;;;;;;;32.05;13.65;;;;;;;;;;6300961;22;20067;-83
2023/03/03 00:43:29;;;;;;;28.38;13.40;;;;;;;;;;6299074;22;20028;-83
2023/03/03 00:46:03;;;;;;;34.85;13.65;;;;;;;;;;6301121;22;20637;-83
2023/03/03 00:48:38;;;;;;;35.85;13.85;;;;;;;;;;6302075;22;20443;-83
2023/03/03 00:51:13;;;;;;;30.52;12.23;;;;;;;;;;6300525;22;20097;-83
2023/03/03 00:53:47;;;;;;;32.58;13.50;;;;;;;;;;6274307;22;20027;-83
2023/03/03 00:56:21;;;;;;;32.97;12.52;;;;;;;;;;6303140;22;20062;-83
2023/03/03 00:58:56;;;;;;;31.00;13.75;;;;;;;;;;6302648;22;20463;-83
2023/03/03 01:01:29;;;;;;;32.63;13.85;;;;;;;;;;6301361;22;20078;-83
2023/03/03 01:04:03;;;;;;;32.13;13.38;;;;;;;;;;6299118;22;20043;-83
2023/03/03 01:06:42;;;;;;;32.30;13.23;;;;;;;;;;6300094;22;20016;-83
2023/03/03 01:09:16;;;;;;;33.90;13.57;;;;;;;;;;6302263;22;20020;-83
2023/03/03 01:11:50;;;;;;;33.55;12.77;;;;;;;;;;6300757;22;20082;-83
2023/03/03 01:14:26;;;;;;;31.25;11.75;;;;;;;;;;6299629;22;20978;-83
2023/03/03 01:16:59;;;;;;;31.08;12.25;;;;;;;;;;6300697;22;20024;-83
2023/03/03 01:19:34;;;;;;;28.20;13.15;;;;;;;;;;6301337;22;20028;-83
2023/03/03 01:22:08;;;;;;;33.38;12.35;;;;;;;;;;6300937;22;20341;-83
2023/03/03 01:24:41;;;;;;;30.92;12.85;;;;;;;;;;6300217;22;20068;-83
2023/03/03 01:27:15;;;;;;;32.72;12.38;;;;;;;;;;6300948;22;20024;-82
2023/03/03 01:29:47;;;;;;;29.25;12.40;;;;;;;;;;6302589;22;20023;-82
2023/03/03 01:32:18;;;;;;;34.58;13.70;;;;;;;;;;6302022;22;20853;-83
2023/03/03 01:34:52;;;;;;;33.92;12.48;;;;;;;;;;6298740;22;20086;-82
2023/03/03 01:37:27;;;;;;;30.55;12.60;;;;;;;;;;6302084;22;20019;-83
2023/03/03 01:40:01;;;;;;;30.23;11.57;;;;;;;;;;6299616;22;20054;-83
2023/03/03 01:42:34;;;;;;;33.90;13.02;;;;;;;;;;6302385;22;20530;-83
2023/03/03 01:45:13;;;;;;;30.98;12.48;;;;;;;;;;6299714;22;20026;-83
2023/03/03 01:47:49;;;;;;;30.85;12.25;;;;;;;;;;6301656;22;20024;-83
2023/03/03 01:50:44;;;;;;;31.25;12.35;;;;;;;;;;6274187;22;20031;-83
2023/03/03 01:53:23;;;;;;;30.15;12.45;;;;;;;;;;6301007;22;20019;-82
2023/03/03 01:55:58;;;;;;;32.08;12.45;;;;;;;;;;6299943;22;20506;-82
2023/03/03 01:58:32;;;;;;;32.00;13.05;;;;;;;;;;6300173;22;20471;-83
2023/03/03 02:01:09;;;;;;;27.63;11.40;;;;;;;;;;6301460;22;20020;-82
2023/03/03 02:03:44;;;;;;;35.10;12.50;;;;;;;;;;6301411;22;20012;-83
2023/03/03 02:06:20;;;;;;;27.55;11.75;;;;;;;;;;6304630;22;20020;-83
2023/03/03 02:09:03;;;;;;;30.08;12.55;;;;;;;;;;6305097;22;20027;-83
2023/03/03 02:11:37;;;;;;;29.27;11.55;;;;;;;;;;6306782;22;20023;-83
2023/03/03 02:14:11;;;;;;;33.33;12.27;;;;;;;;;;6303890;22;20024;-83
2023/03/03 02:16:48;;;;;;;30.40;11.65;;;;;;;;;;6304648;22;20082;-83
2023/03/03 02:19:23;;;;;;;31.98;12.50;;;;;;;;;;6305621;22;20495;-83
2023/03/03 02:21:57;;;;;;;30.58;11.27;;;;;;;;;;6304098;22;20024;-83
2023/03/03 02:24:37;;;;;;;30.05;12.48;;;;;;;;;;6304103;22;20514;-83
2023/03/03 02:27:09;;;;;;;28.25;11.68;;;;;;;;;;6301914;22;20024;-83
2023/03/03 02:29:44;;;;;;;27.77;11.02;;;;;;;;;;6301905;22;20023;-83
2023/03/03 02:32:17;;;;;;;28.27;11.77;;;;;;;;;;6303511;22;20018;-83
2023/03/03 02:34:52;;;;;;;29.83;11.57;;;;;;;;;;6303118;22;20028;-83
2023/03/03 02:37:26;;;;;;;25.75;11.73;;;;;;;;;;6304571;22;20020;-83
2023/03/03 02:40:03;;;;;;;27.75;11.43;;;;;;;;;;6304878;22;20111;-83
2023/03/03 02:42:37;;;;;;;30.40;11.60;;;;;;;;;;6305183;22;20570;-83
2023/03/03 02:45:13;;;;;;;25.27;10.88;;;;;;;;;;6302883;22;20024;-83
2023/03/03 02:47:50;;;;;;;25.63;10.65;;;;;;;;;;6303259;22;20023;-83
2023/03/03 02:50:26;;;;;;;30.23;11.38;;;;;;;;;;6277410;22;20563;-83
2023/03/03 02:52:59;;;;;;;29.48;11.52;;;;;;;;;;6276444;22;20031;-83
2023/03/03 02:55:33;;;;;;;34.97;12.38;;;;;;;;;;6303758;22;20023;-83
2023/03/03 02:58:07;;;;;;;31.63;11.75;;;;;;;;;;6302300;22;20066;-83
2023/03/03 03:00:46;;;;;;;27.63;10.43;;;;;;;;;;6278683;22;20118;-83
2023/03/03 03:03:20;;;;;;;30.80;11.20;;;;;;;;;;6302114;22;20857;-83
2023/03/03 03:05:54;;;;;;;29.35;11.35;;;;;;;;;;6303606;22;20039;-83
2023/03/03 03:08:29;;;;;;;30.90;11.60;;;;;;;;;;6302191;22;20019;-82
2023/03/03 03:11:03;;;;;;;28.17;11.50;;;;;;;;;;6302179;22;20027;-83
2023/03/03 03:13:37;;;;;;;26.60;11.60;;;;;;;;;;6276881;22;20026;-83
2023/03/03 03:16:10;;;;;;;34.28;11.73;;;;;;;;;;6303638;22;20031;-83
2023/03/03 03:18:45;;;;;;;29.23;11.85;;;;;;;;;;6304609;22;20030;-83
2023/03/03 03:21:19;;;;;;;28.90;10.55;;;;;;;;;;6303113;22;20027;-83
2023/03/03 03:23:53;;;;;;;25.02;10.57;;;;;;;;;;6276688;22;20023;-83
2023/03/03 03:26:28;;;;;;;27.95;10.55;;;;;;;;;;6302040;22;20024;-83
2023/03/03 03:29:02;;;;;;;31.60;11.95;;;;;;;;;;6303258;22;20078;-82
2023/03/03 03:31:36;;;;;;;27.30;11.05;;;;;;;;;;6304009;22;20023;-83
2023/03/03 03:34:09;;;;;;;28.27;11.57;;;;;;;;;;6273995;22;20035;-83
2023/03/03 03:36:45;;;;;;;24.40;10.30;;;;;;;;;;6302234;22;20405;-83
2023/03/03 03:39:19;;;;;;;27.33;10.65;;;;;;;;;;6303893;22;20019;-83
2023/03/03 03:41:53;;;;;;;26.48;10.45;;;;;;;;;;6276632;22;20101;-83
2023/03/03 03:44:27;;;;;;;27.88;11.20;;;;;;;;;;6301866;22;20032;-83
2023/03/03 03:47:00;;;;;;;27.48;11.10;;;;;;;;;;6301891;22;20027;-83
2023/03/03 03:49:35;;;;;;;25.92;10.15;;;;;;;;;;6303867;22;20045;-83
2023/03/03 03:52:08;;;;;;;26.58;10.98;;;;;;;;;;6302817;22;20058;-83
2023/03/03 03:54:44;;;;;;;26.15;10.38;;;;;;;;;;6301063;22;20035;-83
2023/03/03 03:57:19;;;;;;;28.10;11.30;;;;;;;;;;6303206;22;20383;-83
2023/03/03 03:59:54;;;;;;;29.40;11.82;;;;;;;;;;6299328;22;20023;-83
2023/03/03 04:02:29;;;;;;;27.73;10.50;;;;;;;;;;6302887;22;20487;-82
2023/03/03 04:05:03;;;;;;;26.10;9.85;;;;;;;;;;6301699;22;20031;-83
2023/03/03 04:07:37;;;;;;;26.08;9.65;;;;;;;;;;6303080;22;20023;-83
2023/03/03 04:10:11;;;;;;;27.83;9.85;;;;;;;;;;6302348;22;20020;-83
2023/03/03 04:12:45;;;;;;;25.90;10.32;;;;;;;;;;6300848;22;20031;-82
2023/03/03 04:15:20;;;;;;;29.23;11.05;;;;;;;;;;6301625;22;20494;-83
2023/03/03 04:17:53;;;;;;;28.67;9.93;;;;;;;;;;6302177;22;20023;-83
2023/03/03 04:20:28;;;;;;;24.13;9.73;;;;;;;;;;6301989;22;20082;-83
2023/03/03 04:23:02;;;;;;;30.98;11.60;;;;;;;;;;6299857;22;20028;-82
2023/03/03 04:25:35;;;;;;;32.95;11.05;;;;;;;;;;6301779;22;20027;-82
2023/03/03 04:28:09;;;;;;;31.45;11.65;;;;;;;;;;6302354;22;20115;-83
2023/03/03 04:30:44;;;;;;;29.75;10.40;;;;;;;;;;6273630;22;20415;-83
2023/03/03 04:33:17;;;;;;;27.40;10.07;;;;;;;;;;6301513;22;20866;-83
2023/03/03 04:35:52;;;;;;;26.80;11.23;;;;;;;;;;6302067;22;20059;-83
2023/03/03 04:38:26;;;;;;;30.73;10.00;;;;;;;;;;6301825;22;20026;-83
2023/03/03 04:41:00;;;;;;;27.52;10.45;;;;;;;;;;6300411;22;20027;-83
2023/03/03 04:43:34;;;;;;;28.48;10.55;;;;;;;;;;6274042;22;20490;-82
2023/03/03 04:46:08;;;;;;;30.40;10.60;;;;;;;;;;6301202;22;20042;-82
2023/03/03 04:48:42;;;;;;;24.45;9.55;;;;;;;;;;6302647;22;20050;-83
2023/03/03 04:51:17;;;;;;;27.95;9.57;;;;;;;;;;6301352;22;20023;-83
2023/03/03 04:53:54;;;;;;;27.17;10.23;;;;;;;;;;6273276;22;20074;-82
2023/03/03 04:56:30;;;;;;;26.60;8.98;;;;;;;;;;6301390;22;20472;-83
2023/03/03 04:59:03;;;;;;;30.17;10.35;;;;;;;;;;6300448;22;20024;-83
2023/03/03 05:01:37;;;;;;;31.05;11.10;;;;;;;;;;6301852;22;20020;-83
2023/03/03 05:04:11;;;;;;;25.70;9.80;;;;;;;;;;6299014;22;20078;-82
2023/03/03 05:06:45;;;;;;;28.17;10.57;;;;;;;;;;6300870;22;20023;-83
2023/03/03 05:09:20;;;;;;;33.88;11.63;;;;;;;;;;6300766;22;20887;-83
2023/03/03 05:11:53;;;;;;;29.83;11.13;;;;;;;;;;6301266;22;20747;-82
2023/03/03 05:14:28;;;;;;;29.40;10.38;;;;;;;;;;6300773;22;20035;-82
2023/03/03 05:17:04;;;;;;;29.02;10.80;;;;;;;;;;6298708;22;20023;-82
2023/03/03 05:19:37;;;;;;;29.85;11.07;;;;;;;;;;6275617;22;20027;-82
2023/03/03 05:22:11;;;;;;;29.65;11.30;;;;;;;;;;6299830;22;20472;-82
2023/03/03 05:24:47;;;;;;;29.35;11.20;;;;;;;;;;6299129;22;20090;-82
2023/03/03 05:27:22;;;;;;;29.45;10.95;;;;;;;;;;6276927;22;20079;-82
2023/03/03 05:29:56;;;;;;;28.15;10.43;;;;;;;;;;6301938;22;20027;-82
2023/03/03 05:32:30;;;;;;;29.40;10.10;;;;;;;;;;6273226;22;20027;-82
2023/03/03 05:35:03;;;;;;;26.27;9.95;;;;;;;;;;6275020;22;20146;-82
2023/03/03 05:37:39;;;;;;;28.35;10.60;;;;;;;;;;6304237;22;20027;-82
2023/03/03 05:40:13;;;;;;;28.25;10.10;;;;;;;;;;6275945;22;20028;-83
2023/03/03 05:42:48;;;;;;;28.98;9.90;;;;;;;;;;6302372;22;20048;-83
2023/03/03 05:45:23;;;;;;;30.00;10.60;;;;;;;;;;6301834;22;20039;-82
2023/03/03 05:47:57;;;;;;;26.42;9.57;;;;;;;;;;6300788;22;20024;-82
2023/03/03 05:50:31;;;;;;;28.02;10.82;;;;;;;;;;6301754;22;20024;-82
2023/03/03 05:53:04;;;;;;;30.80;11.65;;;;;;;;;;6301304;22;20008;-83
2023/03/03 05:55:37;;;;;;;31.02;10.02;;;;;;;;;;6275416;22;20024;-82
2023/03/03 05:58:12;;;;;;;28.33;10.38;;;;;;;;;;6301082;22;20078;-83
2023/03/03 06:00:45;;;;;;;31.83;10.73;;;;;;;;;;6300786;22;20034;-83
2023/03/03 06:03:19;;;;;;;31.50;9.50;;;;;;;;;;6300545;22;20028;-82
2023/03/03 06:05:53;;;;;;;27.05;10.63;;;;;;;;;;6302165;22;20032;-82
2023/03/03 06:08:28;;;;;;;29.20;9.60;;;;;;;;;;6301678;22;20094;-82
2023/03/03 06:11:02;;;;;;;28.95;9.23;;;;;;;;;;6300966;22;20020;-82
2023/03/03 06:13:35;;;;;;;30.13;10.93;;;;;;;;;;6300676;22;20035;-83
2023/03/03 06:16:08;;;;;;;27.27;9.68;;;;;;;;;;6300679;22;20070;-83
2023/03/03 06:18:43;;;;;;;29.60;9.80;;;;;;;;;;6300309;22;20102;-83
2023/03/03 06:21:18;;;;;;;30.75;10.10;;;;;;;;;;6299952;22;20032;-82
2023/03/03 06:23:53;;;;;;;34.60;10.80;;;;;;;;;;6297517;22;20015;-83
2023/03/03 06:26:26;;;;;;;29.50;10.32;;;;;;;;;;6275871;22;20023;-82
2023/03/03 06:29:01;;;;;;;33.00;10.73;;;;;;;;;;6301573;22;20030;-82
2023/03/03 06:31:35;;;;;;;32.30;10.30;;;;;;;;;;6301894;22;20078;-82
2023/03/03 06:34:08;;;;;;;33.72;11.63;;;;;;;;;;6298417;22;20788;-82
2023/03/03 06:36:43;;;;;;;34.20;11.05;;;;;;;;;;6299948;22;20028;-82
2023/03/03 06:39:18;;;;;;;33.97;10.38;;;;;;;;;;6297628;22;20591;-82
2023/03/03 06:41:52;;;;;;;40.97;11.65;;;;;;;;;;6299466;22;20028;-83
2023/03/03 06:44:26;;;;;;;33.83;10.32;;;;;;;;;;6298189;22;20024;-82
2023/03/03 06:47:01;;;;;;;29.40;9.63;;;;;;;;;;6299856;22;20496;-82
2023/03/03 06:49:34;;;;;;;29.58;10.65;;;;;;;;;;6274815;22;20027;-82
2023/03/03 06:52:15;;;;;;;31.08;10.10;;;;;;;;;;6300429;22;20032;-82
2023/03/03 06:54:49;;;;;;;32.72;10.60;;;;;;;;;;6298684;22;20024;-82
2023/03/03 06:57:31;;;;;;;37.55;10.55;;;;;;;;;;6300092;22;20027;-85
2023/03/03 07:00:14;;;;;;;25.70;8.73;;;;;;;;;;6300604;22;20468;-82
2023/03/03 07:02:45;;;;;;;31.83;11.10;;;;;;;;;;6299572;22;20526;-82
2023/03/03 07:05:20;;;;;;;23.73;9.05;;;;;;;;;;6274439;22;20016;-82
2023/03/03 07:07:53;;;;;;;27.80;9.00;;;;;;;;;;6300493;22;20032;-80
2023/03/03 07:10:28;;;;;;;30.10;9.88;;;;;;;;;;6275936;22;20038;-81
2023/03/03 07:13:10;;;;;;;30.52;9.80;;;;;;;;;;6301268;22;20023;-82
2023/03/03 07:15:44;;;;;;;26.52;8.75;;;;;;;;;;6275573;22;20031;-82
2023/03/03 07:18:35;;;;;;;24.30;7.72;;;;;;;;;;6300007;22;20450;-82
2023/03/03 07:21:18;;;;;;;23.40;7.45;;;;;;;;;;6300368;22;20051;-82
2023/03/03 07:23:51;;;;;;;26.42;8.93;;;;;;;;;;6298693;22;20115;-82
2023/03/03 07:26:31;;;;;;;25.70;8.02;;;;;;;;;;6301377;22;20028;-82
2023/03/03 07:29:25;;;;;;;28.30;7.90;;;;;;;;;;6301285;22;20101;-82
2023/03/03 07:31:59;;;;;;;26.60;7.82;;;;;;;;;;6301720;22;20008;-82
2023/03/03 07:34:36;;;;;;;28.83;9.23;;;;;;;;;;6299839;22;20016;-82
2023/03/03 07:37:26;;;;;;;28.30;9.35;;;;;;;;;;6302090;22;20043;-82
2023/03/03 07:40:01;;;;;;;26.88;8.75;;;;;;;;;;6302012;22;20418;-82
2023/03/03 07:42:37;;;;;;;27.88;8.05;;;;;;;;;;6301601;22;20051;-82
2023/03/03 07:45:34;;;;;;;26.65;7.93;;;;;;;;;;6300941;22;20973;-82
2023/03/03 07:48:15;;;;;;;23.02;8.02;;;;;;;;;;6274209;22;20027;-83
2023/03/03 07:50:48;;;;;;;20.77;7.45;;;;;;;;;;6299615;22;20023;-82
2023/03/03 07:53:26;;;;;;;24.67;8.07;;;;;;;;;;6300166;22;20031;-83
2023/03/03 07:55:55;;;;;;;23.88;8.07;;;;;;;;;;6303716;22;20058;-82
2023/03/03 07:58:26;;;;;;;22.70;7.53;;;;;;;;;;6304752;22;20345;-83
2023/03/03 08:01:12;;;;;;;25.08;9.63;;;;;;;;;;6301867;22;20024;-83
2023/03/03 08:03:49;;;;;;;25.08;8.50;;;;;;;;;;6300506;22;20015;-83
2023/03/03 08:06:43;;;;;;;24.30;7.60;;;;;;;;;;6275106;22;20048;-83
2023/03/03 08:09:20;;;;;;;18.45;7.25;;;;;;;;;;6303671;22;20015;-85
2023/03/03 08:12:22;;;;;;;19.17;6.60;;;;;;;;;;6303858;22;20039;-83
2023/03/03 08:14:58;;;;;;;19.77;7.50;;;;;;;;;;6264654;22;20523;-83
2023/03/03 08:17:36;;;;;;;19.90;7.35;;;;;;;;;;6301155;22;20015;-83
2023/03/03 08:20:30;;;;;;;15.52;6.80;;;;;;;;;;6299584;22;20024;-83
2023/03/03 08:23:02;;;;;;;18.77;7.18;;;;;;;;;;6294631;22;20022;-83
2023/03/03 08:25:34;;;;;;;20.10;6.80;;;;;;;;;;6302677;22;20069;-83
2023/03/03 08:28:06;;;;;;;17.58;7.43;;;;;;;;;;6303691;22;20122;-82
2023/03/03 08:30:40;;;;;;;18.55;6.75;;;;;;;;;;6302193;22;20077;-82
2023/03/03 08:33:07;;;;;;;19.58;6.55;;;;;;;;;;6302305;22;20047;-85
2023/03/03 08:35:37;;;;;;;18.10;6.47;;;;;;;;;;6302869;22;20098;-82
2023/03/03 08:38:12;;;;;;;19.90;7.28;;;;;;;;;;6300719;22;20027;-82
2023/03/03 08:40:47;;;;;;;17.90;6.72;;;;;;;;;;6301516;22;20071;-82
2023/03/03 08:43:21;;;;;;;19.75;6.95;;;;;;;;;;6298260;22;20099;-82
2023/03/03 08:45:58;;;;;;;18.17;7.25;;;;;;;;;;6300204;22;20071;-82
2023/03/03 08:48:31;;;;;;;15.88;5.75;;;;;;;;;;6300789;22;20648;-82
2023/03/03 08:51:05;;;;;;;17.55;6.43;;;;;;;;;;6301469;22;20062;-82
2023/03/03 08:53:37;;;;;;;22.48;6.72;;;;;;;;;;6301976;22;20022;-82
2023/03/03 08:56:12;;;;;;;20.08;7.13;;;;;;;;;;6273306;22;20015;-83
2023/03/03 08:58:46;;;;;;;18.95;7.30;;;;;;;;;;6303039;22;20020;-82
2023/03/03 09:01:30;;;;;;;20.77;6.15;;;;;;;;;;6301925;22;20454;-83
2023/03/03 09:04:03;;;;;;;19.13;6.63;;;;;;;;;;6302625;22;20031;-82
2023/03/03 09:06:38;;;;;;;17.92;5.75;;;;;;;;;;6302801;22;20074;-82
2023/03/03 09:09:11;;;;;;;16.38;5.55;;;;;;;;;;6302316;22;20031;-83
2023/03/03 09:11:46;;;;;;;14.45;5.38;;;;;;;;;;6302106;22;21395;-83
2023/03/03 09:14:19;;;;;;;13.98;5.45;;;;;;;;;;6274167;22;20415;-82
2023/03/03 09:16:53;;;;;;;14.75;5.38;;;;;;;;;;6276483;22;20027;-83
2023/03/03 09:19:32;;;;;;;15.70;5.22;;;;;;;;;;6301094;22;20094;-83
2023/03/03 09:22:32;;;;;;;15.52;5.22;;;;;;;;;;6301066;22;20496;-82
2023/03/03 09:25:15;;;;;;;15.02;5.03;;;;;;;;;;6299464;22;20456;-82
2023/03/03 09:27:49;;;;;;;16.25;5.28;;;;;;;;;;6300827;22;20468;-82
2023/03/03 09:30:41;;;;;;;10.35;4.38;;;;;;;;;;6302037;22;20020;-82
2023/03/03 09:33:22;;;;;;;13.98;5.65;;;;;;;;;;6300362;22;20034;-83
2023/03/03 09:36:14;;;;;;;15.77;5.88;;;;;;;;;;6301257;22;20028;-82
2023/03/03 09:38:48;;;;;;;11.85;4.45;;;;;;;;;;6302950;22;20035;-83
2023/03/03 09:41:31;;;;;;;10.65;4.53;;;;;;;;;;6301828;22;20026;-82
2023/03/03 09:44:16;;;;;;;11.20;4.75;;;;;;;;;;6273885;22;20158;-82
2023/03/03 09:46:52;;;;;;;12.27;5.13;;;;;;;;;;6275537;22;20082;-82
2023/03/03 09:49:34;;;;;;;15.45;4.97;;;;;;;;;;6301681;22;20024;-82
2023/03/03 09:52:14;;;;;;;15.13;5.07;;;;;;;;;;6274378;22;20470;-83
2023/03/03 09:55:06;;;;;;;16.83;5.00;;;;;;;;;;6274378;22;20015;-83
2023/03/03 09:57:42;;;;;;;13.80;5.63;;;;;;;;;;6307688;22;20027;-83
2023/03/03 10:00:29;;;;;;;17.00;5.85;;;;;;;;;;6304557;22;20035;-83
2023/03/03 10:03:01;;;;;;;12.40;5.32;;;;;;;;;;6300655;22;20094;-81
2023/03/03 10:05:51;;;;;;;16.17;6.03;;;;;;;;;;6302433;22;20107;-83
2023/03/03 10:08:42;;;;;;;14.27;5.40;;;;;;;;;;6304013;22;20035;-82
2023/03/03 10:11:31;;;;;;;14.23;5.18;;;;;;;;;;6300738;22;20020;-83
2023/03/03 10:14:12;;;;;;;11.95;5.15;;;;;;;;;;6274958;22;20794;-82
2023/03/03 10:16:55;;;;;;;14.48;6.20;;;;;;;;;;6274700;22;20039;-83
2023/03/03 10:19:39;;;;;;;16.25;5.32;;;;;;;;;;6302631;22;20020;-83
2023/03/03 10:22:23;;;;;;;15.32;5.40;;;;;;;;;;6300512;22;20989;-83
2023/03/03 10:25:03;;;;;;;14.38;5.18;;;;;;;;;;6302730;22;20113;-83
2023/03/03 10:27:37;;;;;;;13.65;4.95;;;;;;;;;;6278582;22;20031;-83
2023/03/03 10:30:28;;;;;;;11.98;4.93;;;;;;;;;;6304708;22;20534;-83
2023/03/03 10:33:23;;;;;;;11.80;4.60;;;;;;;;;;6300914;22;20144;-83
2023/03/03 10:36:13;;;;;;;14.57;4.55;;;;;;;;;;6302020;22;20517;-82
2023/03/03 10:38:55;;;;;;;13.00;4.20;;;;;;;;;;6301662;22;20032;-80
2023/03/03 10:41:30;;;;;;;8.60;3.75;;;;;;;;;;6303561;22;20024;-82
2023/03/03 10:44:08;;;;;;;8.50;3.53;;;;;;;;;;6303714;22;20082;-83
2023/03/03 10:46:45;;;;;;;10.15;4.03;;;;;;;;;;6302783;22;20819;-85
2023/03/03 10:49:12;;;;;;;11.15;4.13;;;;;;;;;;6302668;22;20020;-84
2023/03/03 10:51:51;;;;;;;9.65;3.85;;;;;;;;;;6276404;22;20066;-82
2023/03/03 10:54:36;;;;;;;9.93;4.18;;;;;;;;;;6302271;22;20055;-83
2023/03/03 10:57:21;;;;;;;9.30;3.63;;;;;;;;;;6303492;22;20397;-81
2023/03/03 10:59:51;;;;;;;10.65;3.85;;;;;;;;;;6303111;22;20038;-83
2023/03/03 11:02:26;;;;;;;12.40;3.92;;;;;;;;;;6276225;22;20055;-84
2023/03/03 11:04:56;;;;;;;9.48;3.85;;;;;;;;;;6275089;22;20047;-83
2023/03/03 11:07:41;;;;;;;9.10;3.43;;;;;;;;;;6275647;22;20023;-84
2023/03/03 11:10:20;;;;;;;9.50;3.45;;;;;;;;;;6302543;22;20103;-84
2023/03/03 11:12:56;;;;;;;10.80;3.63;;;;;;;;;;6299678;22;20102;-83
2023/03/03 11:15:34;;;;;;;9.35;3.40;;;;;;;;;;6302495;22;20062;-83
2023/03/03 11:18:22;;;;;;;9.50;3.55;;;;;;;;;;6275135;22;20028;-84
2023/03/03 11:20:51;;;;;;;9.65;3.13;;;;;;;;;;6301334;22;20028;-84
2023/03/03 11:23:17;;;;;;;6.70;2.58;;;;;;;;;;6301882;22;20091;-85
2023/03/03 11:25:57;;;;;;;6.90;2.53;;;;;;;;;;6302310;22;20067;-82
2023/03/03 11:28:24;;;;;;;7.13;3.25;;;;;;;;;;6275001;22;20036;-82
2023/03/03 11:31:01;;;;;;;7.32;3.20;;;;;;;;;;6276696;22;20023;-86
2023/03/03 11:33:37;;;;;;;8.05;3.30;;;;;;;;;;6303262;22;20012;-82
2023/03/03 11:36:19;;;;;;;8.88;2.90;;;;;;;;;;6301033;22;20456;-83
2023/03/03 11:38:46;;;;;;;8.07;2.58;;;;;;;;;;6299805;22;20024;-84
2023/03/03 11:41:15;;;;;;;6.38;2.40;;;;;;;;;;6299897;22;20099;-83
2023/03/03 11:43:43;;;;;;;9.77;2.92;;;;;;;;;;6298581;22;20019;-82
2023/03/03 11:46:18;;;;;;;13.43;2.90;;;;;;;;;;6299120;22;20071;-83
2023/03/03 11:48:54;;;;;;;9.20;2.75;;;;;;;;;;6299826;22;20012;-83
2023/03/03 11:51:22;;;;;;;6.85;2.63;;;;;;;;;;6299666;22;20130;-82
2023/03/03 11:53:54;;;;;;;7.03;2.47;;;;;;;;;;6297914;22;20067;-83
2023/03/03 11:56:23;;;;;;;7.18;2.80;;;;;;;;;;6271713;22;20487;-85
2023/03/03 11:58:59;;;;;;;5.75;2.15;;;;;;;;;;6271123;22;20027;-82
2023/03/03 12:01:35;;;;;;;8.25;2.72;;;;;;;;;;6299088;22;20492;-82
2023/03/03 12:04:03;;;;;;;5.32;1.90;;;;;;;;;;6270741;22;20032;-83
2023/03/03 12:06:30;;;;;;;6.03;1.88;;;;;;;;;;6299401;22;20027;-82
2023/03/03 12:08:59;;;;;;;5.38;1.55;;;;;;;;;;6297809;22;20097;-83
2023/03/03 12:11:45;;;;;;;5.15;1.58;;;;;;;;;;6271650;22;20063;-85
2023/03/03 12:14:19;;;;;;;4.75;1.67;;;;;;;;;;6297631;22;20090;-85
2023/03/03 12:16:54;;;;;;;5.60;1.80;;;;;;;;;;6298968;22;20549;-85
2023/03/03 12:19:29;;;;;;;6.38;1.73;;;;;;;;;;6299459;22;20028;-83
2023/03/03 12:22:11;;;;;;;4.30;1.30;;;;;;;;;;6271325;22;20408;-85
2023/03/03 12:24:40;;;;;;;6.47;1.90;;;;;;;;;;6299199;22;20023;-85
2023/03/03 12:27:27;;;;;;;3.80;1.25;;;;;;;;;;6299781;22;20544;-82
2023/03/03 12:30:09;;;;;;;3.58;1.30;;;;;;;;;;6298370;22;20463;-82
2023/03/03 12:33:00;;;;;;;4.88;1.52;;;;;;;;;;6299036;22;20031;-82
2023/03/03 12:35:27;;;;;;;4.93;1.50;;;;;;;;;;6271841;22;20028;-83
2023/03/03 12:38:05;;;;;;;5.25;1.67;;;;;;;;;;6304672;22;20023;-84
2023/03/03 12:40:33;;;;;;;4.55;1.63;;;;;;;;;;6305189;22;20039;-84
2023/03/03 12:42:59;;;;;;;4.32;1.40;;;;;;;;;;6302059;22;20035;-84
2023/03/03 12:45:45;;;;;;;3.38;1.35;;;;;;;;;;6304417;22;20103;-84
2023/03/03 12:48:20;;;;;;;6.25;1.60;;;;;;;;;;6303292;22;20058;-85
2023/03/03 12:50:54;;;;;;;5.00;1.52;;;;;;;;;;6302700;22;20031;-84
2023/03/03 12:53:27;;;;;;;5.90;1.40;;;;;;;;;;6275143;22;20949;-83
2023/03/03 12:56:00;;;;;;;6.85;1.50;;;;;;;;;;6304748;22;20190;-84
2023/03/03 12:58:35;;;;;;;3.75;1.20;;;;;;;;;;6304070;22;20027;-84
2023/03/03 13:01:02;;;;;;;6.65;1.33;;;;;;;;;;6276893;22;20016;-84
2023/03/03 13:03:37;;;;;;;3.70;1.10;;;;;;;;;;6302503;22;20558;-84
2023/03/03 13:06:29;;;;;;;4.65;1.10;;;;;;;;;;6281103;22;20023;-85
2023/03/03 13:08:58;;;;;;;4.50;1.10;;;;;;;;;;6308844;22;20038;-83
2023/03/03 13:11:28;;;;;;;6.45;1.30;;;;;;;;;;6309922;22;20032;-83
2023/03/03 13:14:26;;;;;;;6.40;1.20;;;;;;;;;;6281315;22;20059;-83
2023/03/03 13:17:08;;;;;;;3.45;1.00;;;;;;;;;;6273838;22;20442;-83
2023/03/03 13:19:39;;;;;;;4.53;1.17;;;;;;;;;;6310531;22;20027;-84
2023/03/03 13:22:12;;;;;;;4.57;1.10;;;;;;;;;;6307410;22;20455;-83
2023/03/03 13:24:42;;;;;;;4.28;1.25;;;;;;;;;;6278265;22;20067;-83
2023/03/03 13:27:19;;;;;;;9.45;2.08;;;;;;;;;;6306798;22;20102;-83
2023/03/03 13:30:00;;;;;;;5.78;1.98;;;;;;;;;;6280185;22;20519;-83
2023/03/03 13:32:33;;;;;;;4.95;1.58;;;;;;;;;;6307051;22;20058;-83
2023/03/03 13:35:08;;;;;;;4.60;1.80;;;;;;;;;;6278388;22;20035;-83
2023/03/03 13:37:37;;;;;;;4.38;1.85;;;;;;;;;;6306787;22;20023;-83
2023/03/03 13:40:13;;;;;;;5.85;1.70;;;;;;;;;;6279533;22;20049;-82
2023/03/03 13:42:43;;;;;;;3.97;1.48;;;;;;;;;;6281142;22;20417;-83
2023/03/03 13:45:20;;;;;;;4.40;1.60;;;;;;;;;;6312814;22;20370;-83
2023/03/03 13:47:46;;;;;;;7.47;1.90;;;;;;;;;;6309724;22;20020;-83
2023/03/03 13:50:28;;;;;;;5.95;1.60;;;;;;;;;;6309782;22;20834;-82
2023/03/03 13:53:06;;;;;;;4.93;1.30;;;;;;;;;;6305223;22;20023;-82
2023/03/03 13:55:35;;;;;;;5.45;1.70;;;;;;;;;;6307427;22;20079;-83
2023/03/03 13:58:20;;;;;;;4.05;1.42;;;;;;;;;;6305209;22;20020;-83
2023/03/03 14:00:54;;;;;;;5.43;1.50;;;;;;;;;;6306352;22;20031;-83
2023/03/03 14:03:29;;;;;;;4.50;1.42;;;;;;;;;;6303518;22;20020;-83
2023/03/03 14:06:01;;;;;;;5.50;1.70;;;;;;;;;;6278683;22;20098;-83
2023/03/03 14:08:27;;;;;;;5.05;1.67;;;;;;;;;;6278185;22;20012;-83
2023/03/03 14:11:14;;;;;;;5.85;2.05;;;;;;;;;;6306496;22;20035;-82
2023/03/03 14:13:59;;;;;;;8.93;1.75;;;;;;;;;;6302755;22;20439;-82
2023/03/03 14:16:31;;;;;;;6.05;1.67;;;;;;;;;;6304921;22;20973;-82
2023/03/03 14:19:04;;;;;;;5.15;1.90;;;;;;;;;;6306863;22;20016;-82
2023/03/03 14:21:36;;;;;;;6.90;1.67;;;;;;;;;;6304480;22;21006;-81
2023/03/03 14:24:12;;;;;;;5.90;1.90;;;;;;;;;;6304159;22;20023;-82
2023/03/03 14:26:48;;;;;;;6.28;2.17;;;;;;;;;;6305473;22;20023;-82
2023/03/03 14:29:19;;;;;;;5.40;1.95;;;;;;;;;;6306439;22;20024;-82
2023/03/03 14:31:46;;;;;;;5.15;1.65;;;;;;;;;;6305959;22;20031;-82
2023/03/03 14:34:22;;;;;;;3.58;1.48;;;;;;;;;;6276482;22;20024;-82
2023/03/03 14:36:56;;;;;;;3.58;1.27;;;;;;;;;;6305337;22;20047;-82
2023/03/03 14:39:23;;;;;;;6.03;1.83;;;;;;;;;;6304686;22;20358;-82
2023/03/03 14:41:49;;;;;;;5.75;2.03;;;;;;;;;;6305685;22;20031;-82
2023/03/03 14:44:24;;;;;;;4.57;1.90;;;;;;;;;;6304079;22;20557;-82
2023/03/03 14:47:09;;;;;;;4.82;1.63;;;;;;;;;;6305439;22;20028;-82
2023/03/03 14:49:37;;;;;;;3.22;1.13;;;;;;;;;;6278382;22;20357;-82
2023/03/03 14:52:09;;;;;;;3.28;1.10;;;;;;;;;;6306442;22;20051;-81
2023/03/03 14:54:37;;;;;;;3.63;0.95;;;;;;;;;;6305719;22;20028;-82
2023/03/03 14:57:14;;;;;;;6.43;1.20;;;;;;;;;;6306693;22;20818;-83
2023/03/03 14:59:54;;;;;;;3.75;1.42;;;;;;;;;;6277544;22;20020;-81
2023/03/03 15:02:27;;;;;;;3.75;1.35;;;;;;;;;;6305848;22;20032;-81
2023/03/03 15:05:10;;;;;;;2.60;0.90;;;;;;;;;;6305262;22;20490;-82
2023/03/03 15:07:37;;;;;;;6.93;1.38;;;;;;;;;;6306769;22;20901;-82
2023/03/03 15:10:06;;;;;;;4.10;1.40;;;;;;;;;;6304975;22;20541;-82
2023/03/03 15:12:35;;;;;;;4.43;1.40;;;;;;;;;;6307061;22;20098;-81
2023/03/03 15:15:09;;;;;;;3.63;1.20;;;;;;;;;;6277473;22;20415;-82
2023/03/03 15:18:14;;;;;;;6.85;1.30;;;;;;;;;;6305729;22;20558;-83
2023/03/03 15:20:41;;;;;;;7.40;1.50;;;;;;;;;;6307109;22;20541;-83